Stations météo

réclame
Mon MeteoGroup
Rodkallen, Suède (2188): Température de l'air & dewpoint: 15.02.2019 15:00:00 - 21.02.2019 15:00:00 (CET)Rodkallen, Suède (2188): Vitesse du vent & gusts: 15.02.2019 15:00:00 - 21.02.2019 15:00:00 (CET)Rodkallen, Suède (2188): Direction du vent: 15.02.2019 15:00:00 - 21.02.2019 15:00:00 (CET)Rodkallen, Suède (2188): visibility: 15.02.2019 15:00:00 - 21.02.2019 15:00:00 (CET)Rodkallen, Suède (2188): Quantités de précipitations: 15.02.2019 15:00:00 - 21.02.2019 15:00:00 (CET)
Date & Time tt [°C] td [°C] ff [km/h] ff [knt] fx [km/h] fx [knt] dd vv [km] rr [mm]
21.02.2019 15:00:00 -13,0 -19,3 0 0 9 5 N 50 0,0
21.02.2019 14:00:00 -13,7 -18,7 6 3 10 6 NNW 50 0,0
21.02.2019 13:00:00 -16,4 -20,8 8 4 16 9 N 50 0,0
21.02.2019 12:00:00 -15,7 -19,6 11 6 18 10 NW 48 0,0
21.02.2019 11:00:00 -14,8 -19,2 14 7 24 13 NW 50 0,0
21.02.2019 10:00:00 -15,5 -19,9 9 5 25 14 NW 50 0,0
21.02.2019 09:00:00 -16,6 -20,5 19 11 32 18 NW 50 0,0
21.02.2019 08:00:00 -15,8 -19,7 20 11 32 18 NW 50 0,0
21.02.2019 07:00:00 -15,6 -19,5 24 13 30 16 NW 50 0,0
21.02.2019 06:00:00 -16,2 -19,6 21 11 26 14 NW 50 0,0
21.02.2019 05:00:00 -16,5 -20,0 15 8 26 14 NNW 50 0,0
21.02.2019 04:00:00 -15,3 -18,6 18 10 24 13 NW 50 0,0
21.02.2019 03:00:00 -14,4 -17,4 21 11 25 14 WNW 50 0,0
21.02.2019 02:00:00 -14,6 -17,7 18 10 26 14 NW 50 0,0
21.02.2019 01:00:00 -14,3 -17,3 19 10 28 15 NW 50 0,0
21.02.2019 00:00:00 -13,6 -16,9 19 10 29 16 NW 50 0,0
20.02.2019 23:00:00 -13,1 -16,4 20 11 29 16 NW 50 0,0
20.02.2019 22:00:00 -12,5 -16,2 22 12 32 17 NW 50 0,0
20.02.2019 21:00:00 -13,2 -17,0 22 12 34 18 NW 50 0,0
20.02.2019 20:00:00 -11,6 -16,3 25 14 34 18 NNW 50 0,0
20.02.2019 19:00:00 -11,8 -16,0 22 12 34 18 NW 50 0,0
20.02.2019 18:00:00 -10,3 -15,5 22 12 40 21 NW 50 0,0
20.02.2019 17:00:00 -9,7 -15,6 25 14 40 21 NW 50 0,0
20.02.2019 16:00:00 -9,0 -14,4 26 14 45 25 NW 50 0,0
20.02.2019 15:00:00 -8,5 -13,9 29 16 47 25 NW 26 0,0
20.02.2019 14:00:00 -7,5 -12,9 29 16 47 25 NW 17 0,0
20.02.2019 13:00:00 -7,7 -12,6 36 19 51 28 NW 5 0,0
20.02.2019 12:00:00 -7,3 -12,0 32 18 54 29 NNW 9 0,0
20.02.2019 11:00:00 -8,5 -12,3 40 21 54 29 NW 4,2 0,0
20.02.2019 10:00:00 -8,6 -12,4 34 18 54 29 NNW 7 0,0
20.02.2019 09:00:00 -9,7 -12,8 37 20 59 32 NW 3,9 0,0
20.02.2019 08:00:00 -10,2 -13,1 40 22 62 33 NW 3,4 0,0
20.02.2019 07:00:00 -9,7 -12,5 45 24 64 35 NW 1,6 0,0
20.02.2019 06:00:00 -9,5 -12,1 42 23 66 35 NW 1,6 0,0
20.02.2019 05:00:00 -8,2 -10,4 45 24 66 35 NNW 0,9 0,0
20.02.2019 04:00:00 -7,3 -8,9 41 22 63 34 NW 1,0 0,0
20.02.2019 03:00:00 -7,2 -8,6 40 22 57 31 NW 1,1 0,1
20.02.2019 02:00:00 -7,0 -8,1 35 19 54 29 NNW 0,8 0,2
20.02.2019 01:00:00 -6,6 -7,4 32 18 58 31 NNW 0,6 0,4
20.02.2019 00:00:00 -5,2 -5,7 32 18 58 31 NNW 1,4 0,1
19.02.2019 23:00:00 -4,5 -4,9 28 15 41 22 NNW 1,8 0,0
19.02.2019 22:00:00 -2,0 -2,4 17 9 19 11 SW 22 0,0
19.02.2019 21:00:00 -2,3 -2,7 16 9 26 14 S 13 0,0
19.02.2019 20:00:00 -1,5 -2,0 18 10 25 14 S 0,3 0,0
19.02.2019 19:00:00 -1,2 -1,7 18 10 22 12 S 1,1 0,0
19.02.2019 18:00:00 -0,8 -1,4 9 5 20 11 SW 8 0,0
19.02.2019 17:00:00 -0,6 -1,2 15 8 19 10 SSW 9 0,0
19.02.2019 16:00:00 -0,5 -1,3 16 8 20 11 SSW 9 0,0
19.02.2019 15:00:00 -0,2 -1,2 13 7 23 13 SSW 12 0,0
19.02.2019 14:00:00 0,3 -1,1 15 8 23 13 SSW 35 0,0
19.02.2019 13:00:00 0,1 -1,2 19 10 22 12 S 30 0,0
19.02.2019 12:00:00 -0,2 -1,3 14 8 21 11 S 37 0,0
19.02.2019 11:00:00 -0,9 -2,2 13 7 22 12 SSW 37 0,0
19.02.2019 10:00:00 -0,6 -1,7 19 10 22 12 SSW 38 0,0
19.02.2019 09:00:00 -1,1 -2,4 16 9 21 11 SSW 40 0,0
19.02.2019 08:00:00 -1,2 -2,5 18 10 25 14 SSW 50 0,0
19.02.2019 07:00:00 -1,8 -3,2 16 9 27 15 SSW 50 0,0
19.02.2019 06:00:00 -1,3 -2,6 21 11 28 15 SW 50 0,0
19.02.2019 05:00:00 -1,1 -2,7 22 12 34 18 SW 50 0,0
19.02.2019 04:00:00 -0,6 -2,2 21 11 34 18 SW 50 0,0
19.02.2019 03:00:00 -0,8 -2,2 20 11 31 17 SW 50 0,0
19.02.2019 02:00:00 -0,1 -1,4 24 13 34 18 SW 50 0,0
19.02.2019 01:00:00 -0,3 -1,3 22 12 34 18 SW 49 0,0
19.02.2019 00:00:00 -0,3 -1,2 29 16 32 18 SW 45 0,0
18.02.2019 23:00:00 -0,3 -0,9 19 10 26 14 SSW 46 0,0
18.02.2019 22:00:00 -0,1 -0,5 15 8 29 16 SSW 44 0,0
18.02.2019 21:00:00 -0,8 -1,1 19 11 29 16 SSW 35 0,0
18.02.2019 20:00:00 0,1 -0,2 18 10 27 15 SW 18 0,0
18.02.2019 19:00:00 0,1 -0,2 22 12 27 15 SSW 15 0,7
18.02.2019 18:00:00 0,1 -0,2 21 11 24 13 SSW 6 0,6
18.02.2019 17:00:00 0,0 -0,3 18 10 26 14 SSW 1,9 0,6
18.02.2019 16:00:00 0,0 -0,3 21 11 26 14 S 6 0,5
18.02.2019 15:00:00 0,0 -0,4 18 10 34 18 SSW 2,0 0,0
18.02.2019 14:00:00 -0,1 -0,5 20 11 39 21 S 2,3 0,2
18.02.2019 13:00:00 -0,3 -0,9 29 16 53 28 S 2,6 0,2
18.02.2019 12:00:00 -1,1 -1,8 33 18 57 31 S - 0,1
18.02.2019 11:00:00 -1,5 -2,3 44 24 62 34 S - 0,0
18.02.2019 10:00:00 -1,8 -2,6 45 24 62 34 S 0,9 0,1
18.02.2019 09:00:00 -1,7 -2,7 48 26 62 34 SSE 0,9 0,2
18.02.2019 08:00:00 -1,5 -2,6 45 25 58 31 SSE 1,5 0,1
18.02.2019 07:00:00 -1,6 -2,6 40 22 56 31 SSE 1,6 0,1
18.02.2019 06:00:00 -2,1 -3,4 41 22 56 31 S 1,0 -
18.02.2019 05:00:00 -0,9 -5,5 40 22 48 26 S 50 0,0
18.02.2019 04:00:00 -1,0 -4,5 34 18 44 24 S 50 0,0
18.02.2019 03:00:00 -1,1 -4,3 31 17 40 21 S 50 0,0
18.02.2019 02:00:00 -1,2 -4,2 30 16 40 21 S 50 0,0
18.02.2019 01:00:00 -1,2 -4,0 28 15 37 20 S 50 0,0
18.02.2019 00:00:00 -1,4 -4,6 28 15 36 19 SSE 50 0,0
17.02.2019 23:00:00 -1,3 -4,8 25 13 31 17 SSE 50 0,0
17.02.2019 22:00:00 -1,5 -5,0 21 11 24 13 SSE 50 0,0
17.02.2019 21:00:00 -4,3 -7,7 14 8 18 10 SE 50 0,0
17.02.2019 20:00:00 -4,8 -9,2 9 5 11 6 ESE 50 0,0
17.02.2019 19:00:00 -5,6 -11,1 5 3 12 7 E 50 0,0
17.02.2019 18:00:00 -4,4 -11,0 5 3 14 7 NNW 50 0,0
17.02.2019 17:00:00 -2,9 -10,7 10 5 16 8 NW 50 0,0
17.02.2019 16:00:00 -3,9 -10,1 9 5 17 9 NW 50 0,0
17.02.2019 15:00:00 -5,2 -10,7 12 7 19 10 NW 50 0,0
17.02.2019 14:00:00 -3,9 -8,7 12 7 19 10 NW 50 0,0
17.02.2019 13:00:00 -2,7 -8,4 13 7 23 12 NW 47 0,0
17.02.2019 12:00:00 -4,1 -8,0 15 8 33 18 WNW 49 0,0
17.02.2019 11:00:00 -2,4 -8,2 12 7 33 18 NW 44 0,0
17.02.2019 10:00:00 -3,0 -8,9 23 12 32 17 NW 46 0,0
17.02.2019 09:00:00 -4,4 -8,9 21 12 31 17 WNW 50 0,0
17.02.2019 08:00:00 -5,9 -9,4 18 10 36 19 WNW 50 0,0
17.02.2019 07:00:00 -2,0 -8,2 22 12 36 19 NW 50 0,0
17.02.2019 06:00:00 -2,1 -8,4 21 11 61 33 NW 50 0,0
17.02.2019 05:00:00 -0,7 -7,3 25 14 61 33 NW 50 0,0
17.02.2019 04:00:00 0,3 -6,6 40 21 61 33 NW 50 0,0
17.02.2019 03:00:00 0,5 -6,2 39 21 73 39 WNW 50 0,0
17.02.2019 02:00:00 1,6 -5,3 49 26 73 39 WNW 50 0,0
17.02.2019 01:00:00 1,4 -4,8 54 29 68 37 WNW 50 0,0
17.02.2019 00:00:00 1,2 -4,9 52 28 74 40 W 50 0,0
16.02.2019 23:00:00 1,7 -5,0 56 30 79 43 W 50 0,0
16.02.2019 22:00:00 1,9 -5,3 55 30 89 48 W 50 0,0
16.02.2019 21:00:00 2,4 -4,8 59 32 89 48 W 50 0,0
16.02.2019 20:00:00 2,6 -3,5 56 30 74 40 W 50 0,0
16.02.2019 19:00:00 2,2 -3,9 56 31 73 39 WSW 50 0,0
16.02.2019 18:00:00 2,2 -5,2 57 31 73 39 WSW 50 0,0
16.02.2019 17:00:00 2,0 -4,5 48 26 66 36 SW 50 0,0
16.02.2019 16:00:00 2,5 -4,9 45 24 61 33 SW 50 0,0
16.02.2019 15:00:00 3,1 -5,3 44 24 61 33 WSW 50 0,0
16.02.2019 14:00:00 2,9 -3,7 39 21 56 30 WSW 50 0,0
16.02.2019 13:00:00 3,0 -3,4 32 18 56 30 WSW 50 0,0
16.02.2019 12:00:00 3,8 -2,6 38 20 49 26 WSW 50 0,0
16.02.2019 11:00:00 4,2 -1,8 34 18 45 24 WSW 50 0,0
16.02.2019 10:00:00 1,3 -0,5 30 16 45 24 SSW 49 0,0
16.02.2019 09:00:00 1,2 -0,3 36 20 48 26 SSW 50 0,0
16.02.2019 08:00:00 0,7 0,0 36 19 51 28 S 50 0,0
16.02.2019 07:00:00 0,6 -0,3 39 21 51 28 S 42 0,0
16.02.2019 06:00:00 0,7 -0,2 34 18 48 26 S 49 0,0
16.02.2019 05:00:00 0,8 -0,2 34 18 40 22 S 37 0,0
16.02.2019 04:00:00 1,3 0,3 27 14 32 18 S 42 0,0
16.02.2019 03:00:00 1,0 0,0 22 12 28 15 SSE 45 0,0
16.02.2019 02:00:00 0,6 -0,4 19 10 26 14 SSE 50 0,0
16.02.2019 01:00:00 0,7 -0,5 21 12 25 13 SSE 50 0,0
16.02.2019 00:00:00 1,2 -0,3 19 10 24 13 S 50 0,0
15.02.2019 23:00:00 1,0 -0,6 18 10 23 13 S 50 0,0
15.02.2019 22:00:00 0,9 -0,7 15 8 21 11 S 50 0,0
15.02.2019 21:00:00 1,0 -0,9 16 9 23 12 SSW 50 0,0
15.02.2019 20:00:00 1,2 -1,0 17 9 23 12 SW 50 0,0
15.02.2019 19:00:00 1,5 -1,4 20 11 26 14 SW 48 0,0
15.02.2019 18:00:00 1,4 -1,7 21 11 31 17 SW 35 0,0
15.02.2019 17:00:00 1,9 -2,1 26 14 31 17 WSW 30 0,0
15.02.2019 16:00:00 1,7 -2,0 22 12 29 16 SW 30 0,0
15.02.2019 15:00:00 2,5 -2,2 24 13 31 17 WSW 40 0,0

tt = Température de l'air
td = dewpoint
ff = Vitesse du vent
fx = gusts
dd = Direction du vent
vv = visibility
rr = Quantités de précipitations

stations d'obs. à proximité